sensor_id;sensor_type;location;lat;lon;timestamp;temperature;humidity
7218;DHT22;3650;53.580;10.094;2022-09-01T00:00:38;16.50;67.50
7218;DHT22;3650;53.580;10.094;2022-09-01T00:03:07;16.40;67.40
7218;DHT22;3650;53.580;10.094;2022-09-01T00:05:35;16.40;69.30
7218;DHT22;3650;53.580;10.094;2022-09-01T00:08:02;16.40;69.50
7218;DHT22;3650;53.580;10.094;2022-09-01T00:10:29;16.40;69.40
7218;DHT22;3650;53.580;10.094;2022-09-01T00:12:56;16.40;69.20
7218;DHT22;3650;53.580;10.094;2022-09-01T00:15:25;16.50;68.80
7218;DHT22;3650;53.580;10.094;2022-09-01T00:17:52;16.40;69.10
7218;DHT22;3650;53.580;10.094;2022-09-01T00:20:19;16.40;68.50
7218;DHT22;3650;53.580;10.094;2022-09-01T00:22:46;16.40;68.70
7218;DHT22;3650;53.580;10.094;2022-09-01T00:25:13;16.40;69.20
7218;DHT22;3650;53.580;10.094;2022-09-01T00:27:39;16.40;69.20
7218;DHT22;3650;53.580;10.094;2022-09-01T00:30:08;16.40;68.40
7218;DHT22;3650;53.580;10.094;2022-09-01T00:32:36;16.40;69.10
7218;DHT22;3650;53.580;10.094;2022-09-01T00:35:03;16.40;69.50
7218;DHT22;3650;53.580;10.094;2022-09-01T00:37:30;16.40;69.40
7218;DHT22;3650;53.580;10.094;2022-09-01T00:39:57;16.40;69.20
7218;DHT22;3650;53.580;10.094;2022-09-01T00:42:23;16.40;69.30
7218;DHT22;3650;53.580;10.094;2022-09-01T00:44:50;16.40;69.20
7218;DHT22;3650;53.580;10.094;2022-09-01T00:47:17;16.40;69.10
7218;DHT22;3650;53.580;10.094;2022-09-01T00:49:47;16.30;69.90
7218;DHT22;3650;53.580;10.094;2022-09-01T00:52:16;16.30;69.70
7218;DHT22;3650;53.580;10.094;2022-09-01T00:54:48;16.30;70.80
7218;DHT22;3650;53.580;10.094;2022-09-01T00:57:16;16.20;70.60
7218;DHT22;3650;53.580;10.094;2022-09-01T00:59:47;16.20;70.90
7218;DHT22;3650;53.580;10.094;2022-09-01T01:02:15;16.10;71.60
7218;DHT22;3650;53.580;10.094;2022-09-01T01:04:42;16.10;72.00
7218;DHT22;3650;53.580;10.094;2022-09-01T01:07:12;16.00;72.90
7218;DHT22;3650;53.580;10.094;2022-09-01T01:09:41;16.00;72.70
7218;DHT22;3650;53.580;10.094;2022-09-01T01:12:10;15.90;73.70
7218;DHT22;3650;53.580;10.094;2022-09-01T01:14:38;15.90;73.70
7218;DHT22;3650;53.580;10.094;2022-09-01T01:17:06;15.80;74.60
7218;DHT22;3650;53.580;10.094;2022-09-01T01:19:39;15.80;76.00
7218;DHT22;3650;53.580;10.094;2022-09-01T01:22:31;15.80;75.90
7218;DHT22;3650;53.580;10.094;2022-09-01T01:25:19;15.80;76.40
7218;DHT22;3650;53.580;10.094;2022-09-01T01:27:46;15.70;77.10
7218;DHT22;3650;53.580;10.094;2022-09-01T01:30:14;15.70;78.30
7218;DHT22;3650;53.580;10.094;2022-09-01T01:32:42;15.70;77.50
7218;DHT22;3650;53.580;10.094;2022-09-01T01:35:14;15.70;78.40
7218;DHT22;3650;53.580;10.094;2022-09-01T01:37:42;15.70;78.40
7218;DHT22;3650;53.580;10.094;2022-09-01T01:40:11;15.80;78.50
7218;DHT22;3650;53.580;10.094;2022-09-01T01:42:43;15.70;78.40
7218;DHT22;3650;53.580;10.094;2022-09-01T01:45:10;15.60;78.30
7218;DHT22;3650;53.580;10.094;2022-09-01T01:47:37;15.60;79.20
7218;DHT22;3650;53.580;10.094;2022-09-01T01:50:06;15.60;80.50
7218;DHT22;3650;53.580;10.094;2022-09-01T01:52:34;15.60;81.20
7218;DHT22;3650;53.580;10.094;2022-09-01T01:55:00;15.60;81.50
7218;DHT22;3650;53.580;10.094;2022-09-01T01:57:27;15.60;81.60
7218;DHT22;3650;53.580;10.094;2022-09-01T01:59:57;15.50;80.80
7218;DHT22;3650;53.580;10.094;2022-09-01T02:02:25;15.50;80.90
7218;DHT22;3650;53.580;10.094;2022-09-01T02:04:51;15.50;81.50
7218;DHT22;3650;53.580;10.094;2022-09-01T02:07:19;15.40;81.80
7218;DHT22;3650;53.580;10.094;2022-09-01T02:09:46;15.40;82.60
7218;DHT22;3650;53.580;10.094;2022-09-01T02:12:13;15.40;82.50
7218;DHT22;3650;53.580;10.094;2022-09-01T02:14:44;15.40;82.80
7218;DHT22;3650;53.580;10.094;2022-09-01T02:17:12;15.30;82.00
7218;DHT22;3650;53.580;10.094;2022-09-01T02:19:38;15.30;83.40
7218;DHT22;3650;53.580;10.094;2022-09-01T02:22:07;15.30;83.60
7218;DHT22;3650;53.580;10.094;2022-09-01T02:24:35;15.30;83.70
7218;DHT22;3650;53.580;10.094;2022-09-01T02:27:03;15.30;84.00
7218;DHT22;3650;53.580;10.094;2022-09-01T02:29:30;15.30;84.30
7218;DHT22;3650;53.580;10.094;2022-09-01T02:31:56;15.30;83.90
7218;DHT22;3650;53.580;10.094;2022-09-01T02:34:25;15.30;85.00
7218;DHT22;3650;53.580;10.094;2022-09-01T02:36:54;15.30;85.20
7218;DHT22;3650;53.580;10.094;2022-09-01T02:39:25;15.30;85.10
7218;DHT22;3650;53.580;10.094;2022-09-01T02:41:52;15.30;85.30
7218;DHT22;3650;53.580;10.094;2022-09-01T02:44:20;15.30;85.00
7218;DHT22;3650;53.580;10.094;2022-09-01T02:46:48;15.20;84.90
7218;DHT22;3650;53.580;10.094;2022-09-01T02:49:18;15.20;86.80
7218;DHT22;3650;53.580;10.094;2022-09-01T02:51:52;15.30;86.00
7218;DHT22;3650;53.580;10.094;2022-09-01T02:54:23;15.20;86.20
7218;DHT22;3650;53.580;10.094;2022-09-01T02:56:51;15.30;86.00
7218;DHT22;3650;53.580;10.094;2022-09-01T02:59:21;15.30;85.80
7218;DHT22;3650;53.580;10.094;2022-09-01T03:01:49;15.20;85.50
7218;DHT22;3650;53.580;10.094;2022-09-01T03:04:17;15.20;85.80
7218;DHT22;3650;53.580;10.094;2022-09-01T03:06:44;15.20;86.40
7218;DHT22;3650;53.580;10.094;2022-09-01T03:09:14;15.20;85.80
7218;DHT22;3650;53.580;10.094;2022-09-01T03:11:44;15.20;86.30
7218;DHT22;3650;53.580;10.094;2022-09-01T03:14:11;15.20;86.60
7218;DHT22;3650;53.580;10.094;2022-09-01T03:16:39;15.20;86.40
7218;DHT22;3650;53.580;10.094;2022-09-01T03:19:07;15.10;86.30
7218;DHT22;3650;53.580;10.094;2022-09-01T03:21:36;15.10;87.10
7218;DHT22;3650;53.580;10.094;2022-09-01T03:24:05;15.10;87.40
7218;DHT22;3650;53.580;10.094;2022-09-01T03:26:35;15.10;88.20
7218;DHT22;3650;53.580;10.094;2022-09-01T03:29:03;15.10;88.70
7218;DHT22;3650;53.580;10.094;2022-09-01T03:31:30;15.10;88.70
7218;DHT22;3650;53.580;10.094;2022-09-01T03:33:57;15.10;88.20
7218;DHT22;3650;53.580;10.094;2022-09-01T03:36:25;15.10;87.40
7218;DHT22;3650;53.580;10.094;2022-09-01T03:38:53;15.10;87.10
7218;DHT22;3650;53.580;10.094;2022-09-01T03:41:24;15.00;87.30
7218;DHT22;3650;53.580;10.094;2022-09-01T03:43:54;15.00;87.80
7218;DHT22;3650;53.580;10.094;2022-09-01T03:46:23;15.00;88.60
7218;DHT22;3650;53.580;10.094;2022-09-01T03:48:53;14.90;89.40
7218;DHT22;3650;53.580;10.094;2022-09-01T03:51:22;14.90;90.10
7218;DHT22;3650;53.580;10.094;2022-09-01T03:53:50;14.80;89.00
7218;DHT22;3650;53.580;10.094;2022-09-01T03:56:19;14.80;89.10
7218;DHT22;3650;53.580;10.094;2022-09-01T03:58:46;14.80;90.10
7218;DHT22;3650;53.580;10.094;2022-09-01T04:01:14;14.80;90.30
7218;DHT22;3650;53.580;10.094;2022-09-01T04:03:41;14.70;90.10
7218;DHT22;3650;53.580;10.094;2022-09-01T04:06:12;14.70;90.40
7218;DHT22;3650;53.580;10.094;2022-09-01T04:08:39;14.70;90.30
7218;DHT22;3650;53.580;10.094;2022-09-01T04:11:10;14.70;90.50
7218;DHT22;3650;53.580;10.094;2022-09-01T04:13:39;14.70;90.50
7218;DHT22;3650;53.580;10.094;2022-09-01T04:16:18;14.70;90.50
7218;DHT22;3650;53.580;10.094;2022-09-01T04:18:59;14.70;90.60
7218;DHT22;3650;53.580;10.094;2022-09-01T04:21:26;14.70;90.50
7218;DHT22;3650;53.580;10.094;2022-09-01T04:23:54;14.70;90.40
7218;DHT22;3650;53.580;10.094;2022-09-01T04:26:24;14.70;90.20
7218;DHT22;3650;53.580;10.094;2022-09-01T04:28:52;14.70;90.40
7218;DHT22;3650;53.580;10.094;2022-09-01T04:31:21;14.60;90.10
7218;DHT22;3650;53.580;10.094;2022-09-01T04:33:50;14.60;90.00
7218;DHT22;3650;53.580;10.094;2022-09-01T04:36:20;14.60;90.50
7218;DHT22;3650;53.580;10.094;2022-09-01T04:38:49;14.60;90.50
7218;DHT22;3650;53.580;10.094;2022-09-01T04:41:19;14.60;90.60
7218;DHT22;3650;53.580;10.094;2022-09-01T04:43:48;14.50;90.60
7218;DHT22;3650;53.580;10.094;2022-09-01T04:46:16;14.50;90.60
7218;DHT22;3650;53.580;10.094;2022-09-01T04:48:46;14.50;90.80
7218;DHT22;3650;53.580;10.094;2022-09-01T04:51:13;14.60;90.80
7218;DHT22;3650;53.580;10.094;2022-09-01T04:53:42;14.60;90.90
7218;DHT22;3650;53.580;10.094;2022-09-01T04:56:14;14.60;90.60
7218;DHT22;3650;53.580;10.094;2022-09-01T04:58:44;14.60;90.60
7218;DHT22;3650;53.580;10.094;2022-09-01T05:01:16;14.50;90.70
7218;DHT22;3650;53.580;10.094;2022-09-01T05:03:44;14.50;90.90
7218;DHT22;3650;53.580;10.094;2022-09-01T05:06:13;14.50;91.10
7218;DHT22;3650;53.580;10.094;2022-09-01T05:08:40;14.50;91.20
7218;DHT22;3650;53.580;10.094;2022-09-01T05:11:09;14.50;91.40
7218;DHT22;3650;53.580;10.094;2022-09-01T05:13:36;14.50;91.30
7218;DHT22;3650;53.580;10.094;2022-09-01T05:16:07;14.50;91.50
7218;DHT22;3650;53.580;10.094;2022-09-01T05:18:38;14.40;91.50
7218;DHT22;3650;53.580;10.094;2022-09-01T05:21:08;14.50;91.60
7218;DHT22;3650;53.580;10.094;2022-09-01T05:23:35;14.50;91.60
7218;DHT22;3650;53.580;10.094;2022-09-01T05:26:02;14.50;91.70
7218;DHT22;3650;53.580;10.094;2022-09-01T05:28:32;14.50;91.90
7218;DHT22;3650;53.580;10.094;2022-09-01T05:30:59;14.50;91.70
7218;DHT22;3650;53.580;10.094;2022-09-01T05:33:26;14.50;91.50
7218;DHT22;3650;53.580;10.094;2022-09-01T05:35:55;14.50;91.60
7218;DHT22;3650;53.580;10.094;2022-09-01T05:38:23;14.50;91.70
7218;DHT22;3650;53.580;10.094;2022-09-01T05:40:57;14.50;91.80
7218;DHT22;3650;53.580;10.094;2022-09-01T05:43:26;14.60;91.70
7218;DHT22;3650;53.580;10.094;2022-09-01T05:45:53;14.60;91.60
7218;DHT22;3650;53.580;10.094;2022-09-01T05:48:20;14.60;91.70
7218;DHT22;3650;53.580;10.094;2022-09-01T05:50:48;14.60;91.80
7218;DHT22;3650;53.580;10.094;2022-09-01T05:53:16;14.60;91.90
7218;DHT22;3650;53.580;10.094;2022-09-01T05:55:46;14.60;91.80
7218;DHT22;3650;53.580;10.094;2022-09-01T05:58:14;14.60;91.70
7218;DHT22;3650;53.580;10.094;2022-09-01T06:00:42;14.60;92.10
7218;DHT22;3650;53.580;10.094;2022-09-01T06:03:14;14.70;92.20
7218;DHT22;3650;53.580;10.094;2022-09-01T06:05:42;14.70;92.00
7218;DHT22;3650;53.580;10.094;2022-09-01T06:08:13;14.70;92.40
7218;DHT22;3650;53.580;10.094;2022-09-01T06:10:42;14.70;92.60
7218;DHT22;3650;53.580;10.094;2022-09-01T06:13:11;14.80;92.50
7218;DHT22;3650;53.580;10.094;2022-09-01T06:15:40;14.80;92.40
7218;DHT22;3650;53.580;10.094;2022-09-01T06:18:10;14.70;92.40
7218;DHT22;3650;53.580;10.094;2022-09-01T06:20:38;14.70;92.90
7218;DHT22;3650;53.580;10.094;2022-09-01T06:23:06;14.80;93.20
7218;DHT22;3650;53.580;10.094;2022-09-01T06:25:36;14.80;93.30
7218;DHT22;3650;53.580;10.094;2022-09-01T06:28:04;14.90;93.20
7218;DHT22;3650;53.580;10.094;2022-09-01T06:30:34;15.00;93.40
7218;DHT22;3650;53.580;10.094;2022-09-01T06:33:02;15.00;93.50
7218;DHT22;3650;53.580;10.094;2022-09-01T06:35:32;15.00;93.50
7218;DHT22;3650;53.580;10.094;2022-09-01T06:38:00;15.10;93.60
7218;DHT22;3650;53.580;10.094;2022-09-01T06:40:27;15.20;93.80
7218;DHT22;3650;53.580;10.094;2022-09-01T06:42:54;15.20;93.80
7218;DHT22;3650;53.580;10.094;2022-09-01T06:45:23;15.30;93.80
7218;DHT22;3650;53.580;10.094;2022-09-01T06:47:52;15.30;93.60
7218;DHT22;3650;53.580;10.094;2022-09-01T06:50:21;15.40;93.70
7218;DHT22;3650;53.580;10.094;2022-09-01T06:52:49;15.50;93.80
7218;DHT22;3650;53.580;10.094;2022-09-01T06:55:25;15.60;93.90
7218;DHT22;3650;53.580;10.094;2022-09-01T06:57:56;15.60;93.90
7218;DHT22;3650;53.580;10.094;2022-09-01T07:00:25;15.70;93.70
7218;DHT22;3650;53.580;10.094;2022-09-01T07:02:55;15.80;93.70
7218;DHT22;3650;53.580;10.094;2022-09-01T07:05:24;15.80;93.50
7218;DHT22;3650;53.580;10.094;2022-09-01T07:07:53;15.90;93.30
7218;DHT22;3650;53.580;10.094;2022-09-01T07:10:20;16.00;93.30
7218;DHT22;3650;53.580;10.094;2022-09-01T07:12:48;16.10;93.30
7218;DHT22;3650;53.580;10.094;2022-09-01T07:15:15;16.10;93.30
7218;DHT22;3650;53.580;10.094;2022-09-01T07:17:42;16.20;93.30
7218;DHT22;3650;53.580;10.094;2022-09-01T07:20:15;16.30;93.40
7218;DHT22;3650;53.580;10.094;2022-09-01T07:22:42;16.30;93.00
7218;DHT22;3650;53.580;10.094;2022-09-01T07:25:09;16.40;93.00
7218;DHT22;3650;53.580;10.094;2022-09-01T07:27:37;16.40;92.40
7218;DHT22;3650;53.580;10.094;2022-09-01T07:30:05;16.50;92.30
7218;DHT22;3650;53.580;10.094;2022-09-01T07:32:34;16.60;92.10
7218;DHT22;3650;53.580;10.094;2022-09-01T07:35:03;16.70;91.60
7218;DHT22;3650;53.580;10.094;2022-09-01T07:37:31;16.70;91.60
7218;DHT22;3650;53.580;10.094;2022-09-01T07:40:04;16.80;91.50
7218;DHT22;3650;53.580;10.094;2022-09-01T07:42:32;16.90;91.40
7218;DHT22;3650;53.580;10.094;2022-09-01T07:44:59;16.90;90.30
7218;DHT22;3650;53.580;10.094;2022-09-01T07:47:26;17.00;88.70
7218;DHT22;3650;53.580;10.094;2022-09-01T07:49:54;17.00;87.90
7218;DHT22;3650;53.580;10.094;2022-09-01T07:52:21;17.10;83.50
7218;DHT22;3650;53.580;10.094;2022-09-01T07:54:49;17.10;83.00
7218;DHT22;3650;53.580;10.094;2022-09-01T07:57:17;17.20;78.00
7218;DHT22;3650;53.580;10.094;2022-09-01T07:59:44;17.20;77.40
7218;DHT22;3650;53.580;10.094;2022-09-01T08:02:10;17.30;77.30
7218;DHT22;3650;53.580;10.094;2022-09-01T08:04:37;17.40;76.50
7218;DHT22;3650;53.580;10.094;2022-09-01T08:07:04;17.40;76.80
7218;DHT22;3650;53.580;10.094;2022-09-01T08:09:35;17.50;75.00
7218;DHT22;3650;53.580;10.094;2022-09-01T08:12:04;17.60;75.00
7218;DHT22;3650;53.580;10.094;2022-09-01T08:14:31;17.60;73.80
7218;DHT22;3650;53.580;10.094;2022-09-01T08:16:57;17.70;72.50
7218;DHT22;3650;53.580;10.094;2022-09-01T08:19:24;17.80;72.30
7218;DHT22;3650;53.580;10.094;2022-09-01T08:21:51;17.80;66.50
7218;DHT22;3650;53.580;10.094;2022-09-01T08:24:18;17.80;67.90
7218;DHT22;3650;53.580;10.094;2022-09-01T08:26:45;17.90;67.10
7218;DHT22;3650;53.580;10.094;2022-09-01T08:29:13;17.90;64.80
7218;DHT22;3650;53.580;10.094;2022-09-01T08:31:40;18.00;62.80
7218;DHT22;3650;53.580;10.094;2022-09-01T08:34:06;18.00;63.30
7218;DHT22;3650;53.580;10.094;2022-09-01T08:36:37;18.00;62.20
7218;DHT22;3650;53.580;10.094;2022-09-01T08:39:04;18.00;60.90
7218;DHT22;3650;53.580;10.094;2022-09-01T08:41:40;18.10;59.70
7218;DHT22;3650;53.580;10.094;2022-09-01T08:44:15;18.10;57.70
7218;DHT22;3650;53.580;10.094;2022-09-01T08:46:45;18.20;55.30
7218;DHT22;3650;53.580;10.094;2022-09-01T08:49:16;18.20;51.90
7218;DHT22;3650;53.580;10.094;2022-09-01T08:51:49;18.30;53.00
7218;DHT22;3650;53.580;10.094;2022-09-01T08:54:21;18.30;51.80
7218;DHT22;3650;53.580;10.094;2022-09-01T08:56:51;18.30;51.00
7218;DHT22;3650;53.580;10.094;2022-09-01T08:59:21;18.40;51.30
7218;DHT22;3650;53.580;10.094;2022-09-01T09:01:55;18.40;49.60
7218;DHT22;3650;53.580;10.094;2022-09-01T09:04:39;18.40;48.90
7218;DHT22;3650;53.580;10.094;2022-09-01T09:07:17;18.50;49.90
7218;DHT22;3650;53.580;10.094;2022-09-01T09:09:51;18.50;50.20
7218;DHT22;3650;53.580;10.094;2022-09-01T09:12:35;18.50;49.70
7218;DHT22;3650;53.580;10.094;2022-09-01T09:15:19;18.60;50.60
7218;DHT22;3650;53.580;10.094;2022-09-01T09:17:51;18.60;51.10
7218;DHT22;3650;53.580;10.094;2022-09-01T09:20:24;18.60;50.00
7218;DHT22;3650;53.580;10.094;2022-09-01T09:22:52;18.70;49.50
7218;DHT22;3650;53.580;10.094;2022-09-01T09:25:19;18.70;49.50
7218;DHT22;3650;53.580;10.094;2022-09-01T09:27:49;18.80;49.80
7218;DHT22;3650;53.580;10.094;2022-09-01T09:30:21;18.80;52.00
7218;DHT22;3650;53.580;10.094;2022-09-01T09:32:52;18.90;50.20
7218;DHT22;3650;53.580;10.094;2022-09-01T09:35:27;18.90;50.50
7218;DHT22;3650;53.580;10.094;2022-09-01T09:37:55;19.00;47.30
7218;DHT22;3650;53.580;10.094;2022-09-01T09:40:23;19.00;46.30
7218;DHT22;3650;53.580;10.094;2022-09-01T09:43:05;19.00;46.80
7218;DHT22;3650;53.580;10.094;2022-09-01T09:45:36;19.10;46.60
7218;DHT22;3650;53.580;10.094;2022-09-01T09:48:06;19.20;44.90
7218;DHT22;3650;53.580;10.094;2022-09-01T09:50:36;19.20;46.20
7218;DHT22;3650;53.580;10.094;2022-09-01T09:53:16;19.20;44.10
7218;DHT22;3650;53.580;10.094;2022-09-01T09:55:59;19.30;44.80
7218;DHT22;3650;53.580;10.094;2022-09-01T09:58:33;19.30;44.80
7218;DHT22;3650;53.580;10.094;2022-09-01T10:01:06;19.40;43.10
7218;DHT22;3650;53.580;10.094;2022-09-01T10:03:39;19.40;43.40
7218;DHT22;3650;53.580;10.094;2022-09-01T10:06:13;19.50;43.10
7218;DHT22;3650;53.580;10.094;2022-09-01T10:08:43;19.50;42.90
7218;DHT22;3650;53.580;10.094;2022-09-01T10:11:25;19.60;42.00
7218;DHT22;3650;53.580;10.094;2022-09-01T10:13:53;19.70;41.20
7218;DHT22;3650;53.580;10.094;2022-09-01T10:16:26;19.70;38.10
7218;DHT22;3650;53.580;10.094;2022-09-01T10:18:56;19.70;35.90
7218;DHT22;3650;53.580;10.094;2022-09-01T10:21:33;19.80;35.60
7218;DHT22;3650;53.580;10.094;2022-09-01T10:24:08;19.80;35.70
7218;DHT22;3650;53.580;10.094;2022-09-01T10:26:40;19.80;35.90
7218;DHT22;3650;53.580;10.094;2022-09-01T10:29:12;19.80;35.70
7218;DHT22;3650;53.580;10.094;2022-09-01T10:31:41;19.80;35.10
7218;DHT22;3650;53.580;10.094;2022-09-01T10:34:12;19.70;35.40
7218;DHT22;3650;53.580;10.094;2022-09-01T10:36:41;19.70;35.00
7218;DHT22;3650;53.580;10.094;2022-09-01T10:39:10;19.70;35.20
7218;DHT22;3650;53.580;10.094;2022-09-01T10:41:50;19.70;36.30
7218;DHT22;3650;53.580;10.094;2022-09-01T10:44:20;19.70;35.30
7218;DHT22;3650;53.580;10.094;2022-09-01T10:46:49;19.70;36.40
7218;DHT22;3650;53.580;10.094;2022-09-01T10:52:58;19.70;38.60
7218;DHT22;3650;53.580;10.094;2022-09-01T10:55:30;19.70;37.70
7218;DHT22;3650;53.580;10.094;2022-09-01T11:00:53;19.80;36.40
7218;DHT22;3650;53.580;10.094;2022-09-01T11:03:48;19.80;36.00
7218;DHT22;3650;53.580;10.094;2022-09-01T11:06:54;19.80;37.30
7218;DHT22;3650;53.580;10.094;2022-09-01T11:09:26;19.90;36.30
7218;DHT22;3650;53.580;10.094;2022-09-01T11:12:19;19.90;36.70
7218;DHT22;3650;53.580;10.094;2022-09-01T11:14:53;19.90;37.40
7218;DHT22;3650;53.580;10.094;2022-09-01T11:17:22;19.90;37.40
7218;DHT22;3650;53.580;10.094;2022-09-01T11:19:58;19.90;37.20
7218;DHT22;3650;53.580;10.094;2022-09-01T11:22:33;19.90;38.10
7218;DHT22;3650;53.580;10.094;2022-09-01T11:30:54;20.10;38.30
7218;DHT22;3650;53.580;10.094;2022-09-01T11:33:35;20.30;36.00
7218;DHT22;3650;53.580;10.094;2022-09-01T11:36:10;20.40;35.70
7218;DHT22;3650;53.580;10.094;2022-09-01T11:38:45;20.40;36.10
7218;DHT22;3650;53.580;10.094;2022-09-01T11:41:23;20.50;35.30
7218;DHT22;3650;53.580;10.094;2022-09-01T11:43:56;20.50;34.90
7218;DHT22;3650;53.580;10.094;2022-09-01T11:46:28;20.50;34.60
7218;DHT22;3650;53.580;10.094;2022-09-01T11:49:00;20.40;34.60
7218;DHT22;3650;53.580;10.094;2022-09-01T11:51:38;20.40;35.70
7218;DHT22;3650;53.580;10.094;2022-09-01T11:54:07;20.50;36.10
7218;DHT22;3650;53.580;10.094;2022-09-01T11:56:34;20.50;36.50
7218;DHT22;3650;53.580;10.094;2022-09-01T11:59:02;20.60;34.80
7218;DHT22;3650;53.580;10.094;2022-09-01T12:01:32;20.70;35.50
7218;DHT22;3650;53.580;10.094;2022-09-01T12:04:17;20.80;33.90
7218;DHT22;3650;53.580;10.094;2022-09-01T12:09:18;21.00;34.00
7218;DHT22;3650;53.580;10.094;2022-09-01T12:11:45;21.10;31.60
7218;DHT22;3650;53.580;10.094;2022-09-01T12:14:19;21.10;31.50
7218;DHT22;3650;53.580;10.094;2022-09-01T12:16:58;21.20;30.80
7218;DHT22;3650;53.580;10.094;2022-09-01T12:19:28;21.30;30.00
7218;DHT22;3650;53.580;10.094;2022-09-01T12:21:59;21.40;30.80
7218;DHT22;3650;53.580;10.094;2022-09-01T12:24:28;21.60;30.20
7218;DHT22;3650;53.580;10.094;2022-09-01T12:26:57;21.70;29.70
7218;DHT22;3650;53.580;10.094;2022-09-01T12:29:27;21.70;29.60
7218;DHT22;3650;53.580;10.094;2022-09-01T12:31:56;21.90;28.80
7218;DHT22;3650;53.580;10.094;2022-09-01T12:34:27;22.00;28.30
7218;DHT22;3650;53.580;10.094;2022-09-01T12:37:07;22.00;28.40
7218;DHT22;3650;53.580;10.094;2022-09-01T12:39:35;22.10;28.10
7218;DHT22;3650;53.580;10.094;2022-09-01T12:42:07;22.20;28.40
7218;DHT22;3650;53.580;10.094;2022-09-01T12:44:43;22.20;27.60
7218;DHT22;3650;53.580;10.094;2022-09-01T12:47:13;22.30;27.60
7218;DHT22;3650;53.580;10.094;2022-09-01T12:50:01;22.30;30.40
7218;DHT22;3650;53.580;10.094;2022-09-01T12:52:29;22.30;31.00
7218;DHT22;3650;53.580;10.094;2022-09-01T12:55:11;22.40;26.70
7218;DHT22;3650;53.580;10.094;2022-09-01T12:57:45;22.60;26.60
7218;DHT22;3650;53.580;10.094;2022-09-01T13:00:19;22.80;26.00
7218;DHT22;3650;53.580;10.094;2022-09-01T13:02:48;22.90;24.50
7218;DHT22;3650;53.580;10.094;2022-09-01T13:05:24;22.80;26.20
7218;DHT22;3650;53.580;10.094;2022-09-01T13:07:53;22.80;25.90
7218;DHT22;3650;53.580;10.094;2022-09-01T13:10:20;22.80;26.40
7218;DHT22;3650;53.580;10.094;2022-09-01T13:12:48;22.80;25.90
7218;DHT22;3650;53.580;10.094;2022-09-01T13:15:16;22.90;28.50
7218;DHT22;3650;53.580;10.094;2022-09-01T13:17:43;22.90;27.90
7218;DHT22;3650;53.580;10.094;2022-09-01T13:20:10;22.90;28.40
7218;DHT22;3650;53.580;10.094;2022-09-01T13:22:38;22.80;28.50
7218;DHT22;3650;53.580;10.094;2022-09-01T13:25:10;22.70;28.40
7218;DHT22;3650;53.580;10.094;2022-09-01T13:27:38;22.60;28.60
7218;DHT22;3650;53.580;10.094;2022-09-01T13:30:06;22.40;28.60
7218;DHT22;3650;53.580;10.094;2022-09-01T13:32:34;22.30;28.60
7218;DHT22;3650;53.580;10.094;2022-09-01T13:35:01;22.20;29.00
7218;DHT22;3650;53.580;10.094;2022-09-01T13:37:27;22.20;29.10
7218;DHT22;3650;53.580;10.094;2022-09-01T13:39:54;22.20;29.10
7218;DHT22;3650;53.580;10.094;2022-09-01T13:42:21;22.20;29.60
7218;DHT22;3650;53.580;10.094;2022-09-01T13:44:48;22.20;29.30
7218;DHT22;3650;53.580;10.094;2022-09-01T13:47:15;22.20;29.40
7218;DHT22;3650;53.580;10.094;2022-09-01T13:49:43;22.20;29.60
7218;DHT22;3650;53.580;10.094;2022-09-01T13:52:10;22.10;29.20
7218;DHT22;3650;53.580;10.094;2022-09-01T13:54:37;22.10;29.30
7218;DHT22;3650;53.580;10.094;2022-09-01T13:57:04;22.10;30.00
7218;DHT22;3650;53.580;10.094;2022-09-01T13:59:31;22.00;29.00
7218;DHT22;3650;53.580;10.094;2022-09-01T14:01:58;22.00;28.20
7218;DHT22;3650;53.580;10.094;2022-09-01T14:04:26;21.90;28.50
7218;DHT22;3650;53.580;10.094;2022-09-01T14:06:54;21.90;28.80
7218;DHT22;3650;53.580;10.094;2022-09-01T14:09:21;21.80;30.40
7218;DHT22;3650;53.580;10.094;2022-09-01T14:11:50;21.70;29.80
7218;DHT22;3650;53.580;10.094;2022-09-01T14:14:17;21.70;29.40
7218;DHT22;3650;53.580;10.094;2022-09-01T14:16:44;21.70;28.70
7218;DHT22;3650;53.580;10.094;2022-09-01T14:19:12;21.70;28.50
7218;DHT22;3650;53.580;10.094;2022-09-01T14:21:39;21.80;28.00
7218;DHT22;3650;53.580;10.094;2022-09-01T14:24:07;21.80;28.60
7218;DHT22;3650;53.580;10.094;2022-09-01T14:26:34;21.70;28.50
7218;DHT22;3650;53.580;10.094;2022-09-01T14:29:01;21.70;28.70
7218;DHT22;3650;53.580;10.094;2022-09-01T14:31:28;21.70;28.50
7218;DHT22;3650;53.580;10.094;2022-09-01T14:33:56;21.70;28.70
7218;DHT22;3650;53.580;10.094;2022-09-01T14:36:25;21.70;28.80
7218;DHT22;3650;53.580;10.094;2022-09-01T14:38:52;21.70;29.00
7218;DHT22;3650;53.580;10.094;2022-09-01T14:41:22;21.70;29.10
7218;DHT22;3650;53.580;10.094;2022-09-01T14:43:50;21.70;28.90
7218;DHT22;3650;53.580;10.094;2022-09-01T14:46:17;21.70;29.50
7218;DHT22;3650;53.580;10.094;2022-09-01T14:48:45;21.70;29.40
7218;DHT22;3650;53.580;10.094;2022-09-01T14:51:20;21.70;29.40
7218;DHT22;3650;53.580;10.094;2022-09-01T14:53:48;21.80;29.10
7218;DHT22;3650;53.580;10.094;2022-09-01T14:56:15;21.70;29.10
7218;DHT22;3650;53.580;10.094;2022-09-01T14:58:45;21.80;29.20
7218;DHT22;3650;53.580;10.094;2022-09-01T15:01:13;21.70;29.20
7218;DHT22;3650;53.580;10.094;2022-09-01T15:03:40;21.70;30.20
7218;DHT22;3650;53.580;10.094;2022-09-01T15:06:09;21.70;29.90
7218;DHT22;3650;53.580;10.094;2022-09-01T15:08:37;21.60;30.20
7218;DHT22;3650;53.580;10.094;2022-09-01T15:11:07;21.60;30.30
7218;DHT22;3650;53.580;10.094;2022-09-01T15:13:34;21.50;30.70
7218;DHT22;3650;53.580;10.094;2022-09-01T15:16:03;21.50;30.60
7218;DHT22;3650;53.580;10.094;2022-09-01T15:18:30;21.50;30.80
7218;DHT22;3650;53.580;10.094;2022-09-01T15:20:57;21.50;31.00
7218;DHT22;3650;53.580;10.094;2022-09-01T15:23:25;21.40;31.20
7218;DHT22;3650;53.580;10.094;2022-09-01T15:25:53;21.40;31.30
7218;DHT22;3650;53.580;10.094;2022-09-01T15:28:20;21.40;31.20
7218;DHT22;3650;53.580;10.094;2022-09-01T15:30:48;21.30;31.60
7218;DHT22;3650;53.580;10.094;2022-09-01T15:33:17;21.30;31.70
7218;DHT22;3650;53.580;10.094;2022-09-01T15:35:44;21.30;31.90
7218;DHT22;3650;53.580;10.094;2022-09-01T15:38:12;21.30;32.10
7218;DHT22;3650;53.580;10.094;2022-09-01T15:40:40;21.30;31.50
7218;DHT22;3650;53.580;10.094;2022-09-01T15:43:07;21.40;31.30
7218;DHT22;3650;53.580;10.094;2022-09-01T15:45:35;21.40;31.40
7218;DHT22;3650;53.580;10.094;2022-09-01T15:48:03;21.40;31.40
7218;DHT22;3650;53.580;10.094;2022-09-01T15:50:32;21.30;31.30
7218;DHT22;3650;53.580;10.094;2022-09-01T15:53:00;21.30;31.70
7218;DHT22;3650;53.580;10.094;2022-09-01T15:55:29;21.30;31.10
7218;DHT22;3650;53.580;10.094;2022-09-01T15:57:57;21.30;31.50
7218;DHT22;3650;53.580;10.094;2022-09-01T16:00:26;21.30;31.70
7218;DHT22;3650;53.580;10.094;2022-09-01T16:02:54;21.20;31.50
7218;DHT22;3650;53.580;10.094;2022-09-01T16:05:21;21.20;31.70
7218;DHT22;3650;53.580;10.094;2022-09-01T16:07:50;21.20;31.50
7218;DHT22;3650;53.580;10.094;2022-09-01T16:10:18;21.10;31.50
7218;DHT22;3650;53.580;10.094;2022-09-01T16:12:45;21.10;31.40
7218;DHT22;3650;53.580;10.094;2022-09-01T16:15:15;21.00;31.10